Flight Track Log - Related Links

Times and Time Zones

All times are in EDT time to prevent confusion due to time zone crossing. See the UAL906 flight status page for this flight to view local times or setup timezone preferences in your user account.

Time Position Orientation Groundspeed Altitude Reporting Facility
EDT Latitude Longitude Course Direction KTS MPH feet Rate Location/Type
Fri 06:47:58 AM 50.0480 8.5830 160° South 16 18  Level FlightAware ADS-B
Fri 06:49:00 AM 50.0490 8.5840 33° Northeast 17 20 52 Level FlightAware ADS-B
Fri 06:49:40 AM 50.0490 8.5850 90° East 55 Level FlightAware ADS-B
Fri 06:52:00 AM 50.1763 8.2300 300° West  Level FlightAware Approximate
Fri 06:53:00 AM 50.2421 8.0825 308° West  Level FlightAware Approximate
Fri 06:54:00 AM 50.3077 7.9347 308° West  Level FlightAware Approximate
Fri 06:54:38 AM 50.0490 8.5840 308° West 16 18  Level FlightAware ADS-B
Fri 06:55:06 AM 50.0490 8.5830 270° West 27 31 74 Level FlightAware ADS-B
Fri 06:55:35 AM 50.0480 8.5800 243° Southwest 31 36 76 Level FlightAware ADS-B
Fri 06:55:55 AM 50.0470 8.5790 213° Southwest 23 26 78 Level FlightAware ADS-B
Fri 06:56:15 AM 50.0470 8.5800 90° East 21 24 80 Level FlightAware ADS-B
Fri 06:56:31 AM 50.0460 8.5800 180° South 23 26 82 Level FlightAware ADS-B
Fri 06:56:42 AM 50.0460 8.5810 90° East 24 28 83 Level FlightAware ADS-B
Fri 06:57:11 AM 50.0460 8.5820 90° East 23 26 84 Level FlightAware ADS-B
Fri 06:57:37 AM 50.0460 8.5840 90° East 20 23 87 Level FlightAware ADS-B
Fri 07:00:00 AM 50.1846 8.2078 300° West  Level FlightAware Approximate
Fri 07:01:00 AM 50.2523 8.0621 308° West  Level FlightAware Approximate
Fri 07:02:00 AM 50.3179 7.9144 308° West  Level FlightAware Approximate
Fri 07:02:28 AM 50.0470 8.5850 308° West 16 18  Level FlightAware ADS-B
Fri 07:03:08 AM 50.0460 8.5860 147° Southeast 11 13 141 Level FlightAware ADS-B
Fri 07:05:00 AM 50.1540 8.2893 300° West  Level FlightAware Approximate
Fri 07:06:00 AM 50.2150 8.1367 308° West  Level FlightAware Approximate
Fri 07:07:00 AM 50.2812 7.9896 298° West  Level FlightAware Approximate
Fri 07:08:00 AM 50.3517 7.8466 308° West  Level FlightAware Approximate
Fri 07:09:00 AM 50.4186 7.6992 305° West  Level FlightAware Approximate
Fri 07:09:39 AM 50.0450 8.5850 270° West 22 25  Level FlightAware ADS-B
Fri 07:10:09 AM 50.0420 8.5750 245° Southwest 115 132 923 Level FlightAware ADS-B
Fri 07:10:29 AM 50.0380 8.5560 252° West 175 201 1,500 Level FlightAware ADS-B
Fri 07:10:57 AM 50.0290 8.5200 249° West 189 217 1,200 2,455 Climbing FlightAware ADS-B
Fri 07:11:13 AM 50.0270 8.5010 261° West 188 216 1,800 2,211 Climbing FlightAware ADS-B
Fri 07:11:35 AM 50.0290 8.4680 275° West 194 223 2,600 1,588 Climbing FlightAware ADS-B
Fri 07:12:21 AM 50.0260 8.4050 266° West 212 244 3,600 1,345 Climbing FlightAware ADS-B
Fri 07:12:33 AM 50.0230 8.3830 258° West 222 255 3,900 1,116 Climbing FlightAware ADS-B
Fri 07:13:04 AM 50.0170 8.3320 260° West 257 296 4,400 923 Climbing FlightAware ADS-B
Fri 07:13:25 AM 50.0130 8.2920 261° West 282 325 4,700 1,268 Climbing FlightAware ADS-B
Fri 07:14:15 AM 50.0390 8.1880 291° West 328 377 5,900 1,297 Climbing FlightAware ADS-B
Fri 07:14:39 AM 50.0550 8.1370 296° West 349 402 6,300 1,929 Climbing FlightAware ADS-B
Fri 07:15:11 AM 50.0850 8.0680 304° West 356 410 7,700 2,654 Climbing FlightAware ADS-B
Fri 07:15:31 AM 50.1060 8.0290 310° West 354 407 8,600 2,625 Climbing FlightAware ADS-B
Fri 07:15:43 AM 50.1190 8.0040 309° West 355 409 9,100 2,036 Climbing FlightAware ADS-B
Fri 07:16:27 AM 50.1650 7.9140 309° West 370 426 10,500 1,976 Climbing FlightAware ADS-B
Fri 07:17:05 AM 50.2060 7.8350 309° West 378 435 11,800 1,974 Climbing FlightAware ADS-B
Fri 07:17:43 AM 50.2490 7.7550 310° West 389 448 13,000 1,889 Climbing FlightAware ADS-B
Fri 07:17:59 AM 50.2730 7.7290 325° Northwest 399 459 13,500 2,036 Climbing FlightAware ADS-B
Fri 07:18:39 AM 50.3420 7.6790 335° Northwest 406 467 14,900 2,025 Climbing FlightAware ADS-B
Fri 07:19:19 AM 50.4090 7.6330 336° Northwest 408 470 16,200 1,500 Climbing FlightAware ADS-B
Fri 07:19:59 AM 50.4800 7.5840 336° Northwest 425 489 16,900 1,256 Climbing FlightAware ADS-B
Fri 07:20:45 AM 50.5610 7.5240 335° Northwest 430 495 18,000 1,636 Climbing FlightAware ADS-B
Fri 07:21:27 AM 50.6330 7.4530 328° Northwest 428 493 19,300 1,650 Climbing FlightAware ADS-B
Fri 07:22:05 AM 50.6970 7.3880 327° Northwest 432 497 20,200 1,256 Climbing FlightAware ADS-B
Fri 07:22:53 AM 50.7780 7.3040 327° Northwest 444 511 21,100 1,159 Climbing FlightAware ADS-B
Fri 07:23:33 AM 50.8470 7.2320 327° Northwest 450 518 21,900 1,286 Climbing FlightAware ADS-B
Fri 07:24:17 AM 50.9240 7.1520 327° Northwest 454 522 22,900 1,286 Climbing FlightAware ADS-B
Fri 07:24:57 AM 50.9750 7.0520 309° West 441 507 23,700 1,200 Climbing FlightAware ADS-B
Fri 07:25:37 AM 50.9980 6.9340 287° West 442 509 24,500 1,171 Climbing FlightAware ADS-B
Fri 07:26:19 AM 51.0210 6.7970 285° West 448 516 25,300 1,024 Climbing FlightAware ADS-B
Fri 07:26:59 AM 51.0430 6.6690 285° West 454 522 25,900 846 Climbing FlightAware ADS-B
Fri 07:27:37 AM 51.0640 6.5510 286° West 462 532 26,400 923 Climbing FlightAware ADS-B
Fri 07:28:17 AM 51.0860 6.4190 285° West 467 537 27,100 1,071 Climbing FlightAware ADS-B
Fri 07:29:01 AM 51.1110 6.2730 285° West 467 537 27,900 1,146 Climbing FlightAware ADS-B
Fri 07:29:46 AM 51.1370 6.1190 285° West 468 539 28,800 1,047 Climbing FlightAware ADS-B
Fri 07:30:27 AM 51.1590 5.9850 285° West 473 544 29,400 878 Climbing FlightAware ADS-B
Fri 07:31:08 AM 51.1790 5.8500 283° West 474 545 30,000 1,169 Climbing FlightAware ADS-B
Fri 07:31:44 AM 51.1820 5.7180 272° West 464 534 30,900 1,342 Climbing FlightAware ADS-B
Fri 07:32:24 AM 51.1820 5.5870 270° West 459 528 31,700 1,143 Climbing FlightAware ADS-B
Fri 07:33:08 AM 51.1810 5.4380 269° West 456 525 32,500 1,214 Climbing FlightAware ADS-B
Fri 07:33:48 AM 51.1800 5.3030 269° West 450 518 33,400 1,071 Climbing FlightAware ADS-B
Fri 07:34:32 AM 51.1790 5.1600 269° West 445 512 34,000 450 Climbing FlightAware ADS-B
Fri 07:35:08 AM 51.1770 5.0460 268° West 445 512 34,000 -63 Level FlightAware ADS-B
Fri 07:36:08 AM 51.1720 4.8420 268° West 490 564 33,900  Descending FlightAware UK
Fri 07:36:09 AM 51.1780 4.8460 268° West 446 513 34,000 146 Climbing FlightAware ADS-B
Fri 07:36:49 AM 51.1900 4.7150 278° West 452 520 34,000  Level FlightAware ADS-B
Fri 07:37:33 AM 51.2080 4.5660 281° West 451 519 34,000  Level FlightAware ADS-B
Fri 07:38:16 AM 51.2240 4.4280 281° West 450 518 34,000  Level FlightAware ADS-B
Fri 07:38:56 AM 51.2390 4.2980 280° West 450 518 34,000  Level FlightAware ADS-B
Fri 07:39:36 AM 51.2540 4.1680 280° West 449 517 34,000 -78 Level FlightAware ADS-B
Fri 07:40:13 AM 51.2679 4.0449 280° West 490 564 33,900  Descending FlightAware UK
Fri 07:40:20 AM 51.2710 4.0240 280° West 448 516 34,000 118 Climbing FlightAware ADS-B
Fri 07:41:04 AM 51.2870 3.8840 280° West 448 516 34,000  Level FlightAware ADS-B
Fri 07:41:48 AM 51.3020 3.7420 280° West 447 514 34,000  Level FlightAware ADS-B
Fri 07:42:27 AM 51.3170 3.6150 281° West 445 512 34,000  Level FlightAware ADS-B
Fri 07:43:13 AM 51.3330 3.4650 280° West 445 512 34,000  Level FlightAware ADS-B
Fri 07:43:52 AM 51.3470 3.3390 280° West 444 511 34,000  Level FlightAware ADS-B
Fri 07:44:25 AM 51.3580 3.2283 280° West 490 564 34,000  Level FlightAware UK
Fri 07:44:36 AM 51.3620 3.1950 280° West 444 511 34,000 -143 Level FlightAware ADS-B
Fri 07:45:07 AM 51.3729 3.0934 280° West 484 557 33,900  Descending FlightAware UK
Fri 07:45:14 AM 51.3750 3.0710 280° West 445 512 34,000 133 Climbing FlightAware ADS-B
Fri 07:45:52 AM 51.3880 2.9530 280° West 447 514 34,000  Level FlightAware ADS-B
Fri 07:46:36 AM 51.4030 2.8100 280° West 447 514 34,000 -69 Level FlightAware ADS-B
Fri 07:47:19 AM 51.4179 2.6624 280° West 486 559 33,900  Descending FlightAware UK
Fri 07:47:36 AM 51.4230 2.6110 280° West 449 517 34,000 102 Climbing FlightAware ADS-B
Fri 07:48:18 AM 51.4360 2.4860 280° West 450 518 34,000  Level FlightAware ADS-B
Fri 07:49:01 AM 51.4510 2.3310 279° West 450 518 34,000  Level FlightAware ADS-B
Fri 07:49:42 AM 51.4640 2.1990 279° West 450 518 34,000  Level FlightAware ADS-B
Fri 07:50:10 AM 51.4738 2.1006 279° West 450 518 34,000  Level FlightAware ADS-B
Fri 07:50:52 AM 51.4871 1.9627 279° West 449 517 34,000  Level FlightAware ADS-B
Fri 07:51:25 AM 51.4973 1.8554 279° West 449 517 34,000 -87 Level FlightAware ADS-B
Fri 07:52:01 AM 51.5057 1.7376 279° West 490 564 33,900  Descending FlightAware UK
Fri 07:52:02 AM 51.5060 1.7370 279° West 443 510 34,000 167 Climbing FlightAware ADS-B
Fri 07:52:37 AM 51.5080 1.6220 272° West 439 505 34,000 -85 Level FlightAware ADS-B
Fri 07:53:13 AM 51.5100 1.5044 272° West 488 562 33,900  Descending FlightAware UK
Fri 07:53:22 AM 51.5100 1.4790 272° West 438 504 34,000 118 Climbing FlightAware ADS-B
Fri 07:54:04 AM 51.5100 1.3420 270° West 438 504 34,000  Level FlightAware ADS-B
Fri 07:54:57 AM 51.5106 1.1664 270° West 438 504 34,000  Level FlightAware ADS-B
Fri 07:55:29 AM 51.5107 1.0621 270° West 438 504 34,000  Level FlightAware ADS-B
Fri 07:56:01 AM 51.5108 0.9600 270° West 439 505 34,000  Level FlightAware ADS-B
Fri 07:56:33 AM 51.5108 0.8555 270° West 439 505 34,000  Level FlightAware ADS-B
Fri 07:57:04 AM 51.5107 0.7549 270° West 439 505 34,000  Level FlightAware ADS-B
Fri 07:57:36 AM 51.5105 0.6509 270° West 438 504 34,000  Level FlightAware ADS-B
Fri 07:58:08 AM 51.5103 0.5488 270° West 438 504 34,000  Level FlightAware ADS-B
Fri 07:58:52 AM 51.5098 0.4068 270° West 438 504 34,000  Level FlightAware ADS-B
Fri 07:59:24 AM 51.5093 0.3017 270° West 486 559 34,000  Level FlightAware UK
Fri 07:59:29 AM 51.5092 0.2841 270° West 439 505 34,000  Level FlightAware ADS-B
Fri 07:59:59 AM 51.5087 0.1870 270° West 439 505 34,000  Level FlightAware ADS-B
Fri 08:00:30 AM 51.5079 0.0857 269° West 439 505 34,000  Level FlightAware ADS-B
Fri 08:01:04 AM 51.5071 -0.0249 269° West 438 504 34,000  Level FlightAware ADS-B
Fri 08:01:35 AM 51.5063 -0.1224 269° West 438 504 34,000  Level FlightAware ADS-B
Fri 08:02:05 AM 51.5055 -0.2201 269° West 437 503 34,000  Level FlightAware ADS-B
Fri 08:02:36 AM 51.5044 -0.3202 269° West 437 503 34,000  Level FlightAware ADS-B
Fri 08:03:09 AM 51.5033 -0.4282 269° West 436 502 34,000  Level FlightAware ADS-B
Fri 08:03:41 AM 51.5020 -0.5297 269° West 435 501 34,000  Level FlightAware ADS-B
Fri 08:04:11 AM 51.5008 -0.6268 269° West 435 501 34,000  Level FlightAware ADS-B
Fri 08:04:42 AM 51.4995 -0.7277 269° West 434 499 34,000  Level FlightAware ADS-B
Fri 08:05:13 AM 51.4980 -0.8256 269° West 434 499 34,000  Level FlightAware ADS-B
Fri 08:05:48 AM 51.4964 -0.9378 269° West 433 498 34,000  Level FlightAware ADS-B
Fri 08:06:21 AM 51.4947 -1.0428 269° West 433 498 34,000  Level FlightAware ADS-B
Fri 08:06:43 AM 51.4942 -1.1136 269° West 436 502 34,000  Level FlightAware ADS-B
Fri 08:07:03 AM 51.4967 -1.1797 274° West 441 507 34,000  Level FlightAware ADS-B
Fri 08:07:16 AM 51.5000 -1.2219 277° West 444 511 34,000  Level FlightAware ADS-B
Fri 08:07:30 AM 51.5050 -1.2684 280° West 447 514 34,000  Level FlightAware ADS-B
Fri 08:08:03 AM 51.5174 -1.3726 281° West 446 513 34,000  Level FlightAware ADS-B
Fri 08:08:36 AM 51.5276 -1.4803 279° West 442 509 34,000  Level FlightAware ADS-B
Fri 08:09:06 AM 51.5350 -1.5777 277° West 440 506 34,000  Level FlightAware ADS-B
Fri 08:09:43 AM 51.5430 -1.6968 276° West 439 505 34,000  Level FlightAware ADS-B
Fri 08:10:13 AM 51.5495 -1.7961 276° West 439 505 34,000  Level FlightAware ADS-B
Fri 08:10:45 AM 51.5563 -1.9000 276° West 439 505 34,000  Level FlightAware ADS-B
Fri 08:11:16 AM 51.5628 -1.9980 276° West 439 505 34,000  Level FlightAware ADS-B
Fri 08:11:46 AM 51.5692 -2.0950 276° West 440 506 34,000  Level FlightAware ADS-B
Fri 08:12:16 AM 51.5758 -2.1934 276° West 486 559 34,000  Level FlightAware UK
Fri 08:12:29 AM 51.5784 -2.2335 276° West 439 505 34,000  Level FlightAware ADS-B
Fri 08:13:00 AM 51.5850 -2.3344 276° West 438 504 34,000  Level FlightAware ADS-B
Fri 08:13:34 AM 51.5923 -2.4456 276° West 438 504 34,000  Level FlightAware ADS-B
Fri 08:14:05 AM 51.5985 -2.5442 276° West 438 504 34,000  Level FlightAware ADS-B
Fri 08:14:35 AM 51.6046 -2.6428 276° West 439 505 34,000  Level FlightAware ADS-B
Fri 08:15:14 AM 51.6125 -2.7695 276° West 439 505 34,000  Level FlightAware ADS-B
Fri 08:15:46 AM 51.6187 -2.8723 276° West 440 506 34,000 -97 Level FlightAware ADS-B
Fri 08:16:16 AM 51.6244 -2.9682 276° West 488 562 33,900  Descending FlightAware UK
Fri 08:16:45 AM 51.6300 -3.0630 276° West 440 506 34,000  Climbing FlightAware ADS-B
Fri 08:17:22 AM 51.6371 -3.1824 276° West 486 559 33,900  Descending FlightAware UK
Fri 08:17:25 AM 51.6380 -3.1930 276° West 438 504 34,000  Climbing FlightAware ADS-B
Fri 08:17:57 AM 51.6436 -3.2986 276° West 482 555 33,900  Descending FlightAware UK
Fri 08:18:09 AM 51.6460 -3.3360 276° West 440 506 34,000 136 Climbing FlightAware ADS-B
Fri 08:18:41 AM 51.6510 -3.4410 274° West 441 507 34,000  Level FlightAware ADS-B
Fri 08:19:26 AM 51.6590 -3.5850 275° West 443 510 34,000  Level FlightAware ADS-B
Fri 08:20:04 AM 51.6660 -3.7100 275° West 447 514 34,000  Level FlightAware ADS-B
Fri 08:20:42 AM 51.6730 -3.8380 275° West 449 517 34,000  Level FlightAware ADS-B
Fri 08:21:24 AM 51.6800 -3.9680 275° West 450 518 34,000  Level FlightAware ADS-B
Fri 08:22:07 AM 51.6870 -4.1210 274° West 451 519 34,000  Level FlightAware ADS-B
Fri 08:22:45 AM 51.6935 -4.2497 274° West 484 557 34,000  Level FlightAware UK
Fri 08:22:47 AM 51.6940 -4.2560 274° West 453 521 34,000  Level FlightAware ADS-B
Fri 08:23:31 AM 51.7010 -4.4040 274° West 455 524 34,000  Level FlightAware ADS-B
Fri 08:24:13 AM 51.7070 -4.5460 274° West 456 525 34,000  Level FlightAware ADS-B
Fri 08:24:57 AM 51.7140 -4.6910 275° West 457 526 34,000  Level FlightAware ADS-B
Fri 08:25:27 AM 51.7188 -4.7968 275° West 486 559 34,000  Level FlightAware UK
Fri 08:25:29 AM 51.7190 -4.8030 275° West 457 526 34,000  Level FlightAware ADS-B
Fri 08:26:03 AM 51.7239 -4.9183 275° West 488 562 34,000  Level FlightAware UK
Fri 08:26:11 AM 51.7250 -4.9470 275° West 459 528 34,000  Level FlightAware ADS-B
Fri 08:26:51 AM 51.7310 -5.0830 274° West 460 529 34,000  Level FlightAware ADS-B
Fri 08:27:38 AM 51.7370 -5.2400 274° West 460 529 34,000  Level FlightAware ADS-B
Fri 08:28:18 AM 51.7420 -5.3780 273° West 461 531 34,000 -76 Level FlightAware ADS-B
Fri 08:28:57 AM 51.7477 -5.5127 273° West 490 564 33,900  Descending FlightAware UK
Fri 08:28:58 AM 51.7480 -5.5140 273° West 462 532 34,000 146 Climbing FlightAware ADS-B
Fri 08:29:38 AM 51.7530 -5.6540 273° West 462 532 34,000  Level FlightAware ADS-B
Fri 08:30:23 AM 51.7640 -5.8080 277° West 470 541 34,000  Level FlightAware ADS-B
Fri 08:31:07 AM 51.7880 -5.9570 285° West 476 548 34,000  Level FlightAware ADS-B
Fri 08:31:47 AM 51.8120 -6.0950 286° West 476 548 34,000  Level FlightAware ADS-B
Fri 08:32:21 AM 51.8314 -6.2113 286° West 488 562 34,000  Level FlightAware UK
Fri 08:32:28 AM 51.8350 -6.2310 286° West 477 549 34,000  Level FlightAware ADS-B
Fri 08:33:10 AM 51.8600 -6.3770 286° West 477 549 34,000  Level FlightAware ADS-B
Fri 08:33:51 AM 51.8850 -6.5202 286° West 490 564 34,000  Level FlightAware UK
Fri 08:33:54 AM 51.8860 -6.5270 286° West 477 549 34,000  Level FlightAware ADS-B
Fri 08:34:33 AM 51.9090 -6.6620 285° West 477 549 34,000  Level FlightAware ADS-B
Fri 08:35:18 AM 51.9350 -6.8170 285° West 475 547 34,000  Level FlightAware ADS-B
Fri 08:35:51 AM 51.9551 -6.9324 285° West 488 562 34,000  Level FlightAware UK
Fri 08:35:58 AM 51.9580 -6.9520 285° West 476 548 34,000  Level FlightAware ADS-B
Fri 08:36:43 AM 51.9840 -7.1050 285° West 476 548 34,000  Level FlightAware ADS-B
Fri 08:37:23 AM 52.0070 -7.2450 285° West 475 547 34,000 -82 Level FlightAware ADS-B
Fri 08:37:56 AM 52.0268 -7.3667 285° West 486 559 33,900  Descending FlightAware UK
Fri 08:38:01 AM 52.0280 -7.3750 285° West 478 550 34,000 118 Climbing FlightAware ADS-B
Fri 08:38:47 AM 52.0550 -7.5380 285° West 477 549 34,000 -71 Level FlightAware ADS-B
Fri 08:39:26 AM 52.0771 -7.6779 285° West 484 557 33,900  Descending FlightAware UK
Fri 08:39:29 AM 52.0770 -7.6780 285° West 478 550 34,000 158 Climbing FlightAware ADS-B
Fri 08:40:04 AM 52.0970 -7.8040 285° West 478 550 34,000  Level FlightAware ADS-B
Fri 08:40:49 AM 52.1220 -7.9600 285° West 477 549 34,000 -68 Level FlightAware ADS-B
Fri 08:41:32 AM 52.1462 -8.1154 285° West 482 555 33,900  Descending FlightAware UK
Fri 08:41:34 AM 52.1460 -8.1120 285° West 478 550 34,000 143 Climbing FlightAware ADS-B
Fri 08:42:14 AM 52.1680 -8.2560 284° West 479 551 34,000  Level FlightAware ADS-B
Fri 08:42:55 AM 52.1900 -8.3980 284° West 480 552 34,000  Level FlightAware ADS-B
Fri 08:43:34 AM 52.2090 -8.5200 284° West 478 550 34,000  Level FlightAware ADS-B
Fri 08:43:38 AM 52.2138 -8.5542 284° West 488 562 34,000  Level FlightAware UK
Fri 08:44:08 AM 52.2298 -8.6591 284° West 488 562 34,000  Level FlightAware UK
Fri 08:44:10 AM 52.2290 -8.6520 284° West 477 549 34,000  Level FlightAware ADS-B
Fri 08:44:52 AM 52.2520 -8.8070 284° West 476 548 34,000  Level FlightAware ADS-B
Fri 08:45:32 AM 52.2710 -8.9360 284° West 474 545 34,000  Level FlightAware ADS-B
Fri 08:46:19 AM 52.2960 -9.1070 284° West 471 542 34,000  Level FlightAware ADS-B
Fri 08:46:54 AM 52.3140 -9.2260 284° West 471 542 34,000  Level FlightAware ADS-B
Fri 08:47:39 AM 52.3370 -9.3890 283° West 471 542 34,000  Level FlightAware ADS-B
Fri 08:48:20 AM 52.3570 -9.5290 283° West 471 542 34,000  Level FlightAware ADS-B
Fri 08:49:04 AM 52.3790 -9.6800 283° West 472 543 34,000  Level FlightAware ADS-B
Fri 08:49:45 AM 52.3990 -9.8220 283° West 473 544 34,000  Level FlightAware ADS-B
Fri 08:50:25 AM 52.4180 -9.9650 282° West 473 544 34,000  Level FlightAware ADS-B
Fri 08:51:10 AM 52.4400 -10.1230 283° West 473 544 34,000  Level FlightAware ADS-B
Fri 08:51:50 AM 52.4590 -10.2620 283° West 473 544 34,000  Level FlightAware ADS-B
Fri 08:52:36 AM 52.4810 -10.4220 283° West 476 548 34,000  Level FlightAware ADS-B
Fri 08:53:16 AM 52.4990 -10.5620 282° West 477 549 34,000  Level FlightAware ADS-B
Fri 08:54:00 AM 52.5200 -10.7200 282° West 477 549 34,000  Level FlightAware ADS-B
Fri 08:54:40 AM 52.5390 -10.8620 282° West 478 550 34,000  Level FlightAware ADS-B
Fri 08:55:20 AM 52.5570 -11.0020 282° West 477 549 34,000  Level FlightAware ADS-B
Fri 08:56:00 AM 52.5750 -11.1430 282° West 477 549 34,000  Level FlightAware ADS-B
Fri 08:56:47 AM 52.5960 -11.3100 282° West 477 549 34,000  Level FlightAware ADS-B
Fri 08:57:37 AM 52.6150 -11.4610 282° West 477 549 34,000  Level FlightAware ADS-B
Fri 08:58:47 AM 52.6490 -11.7360 282° West 476 548 34,000  Level FlightAware ADS-B
Fri 08:59:59 AM 52.6800 -11.9880 282° West 476 548 34,000 103 Level FlightAware ADS-B
Fri 09:00:44 AM 52.6990 -12.1490 281° West 477 549 34,200 353 Climbing FlightAware ADS-B
Fri 09:01:41 AM 52.7240 -12.3590 281° West 486 559 34,600 495 Climbing FlightAware ADS-B
Fri 09:02:21 AM 52.7410 -12.5070 281° West 489 563 35,000 600 Climbing FlightAware ADS-B
Fri 09:03:01 AM 52.7560 -12.6420 280° West 490 564 35,400 410 Climbing FlightAware ADS-B
Fri 09:04:18 AM 52.7860 -12.9180 280° West 490 564 35,800 466 Climbing FlightAware ADS-B
Fri 09:04:57 AM 52.8040 -13.0730 281° West 491 565 36,300 440 Climbing FlightAware ADS-B
Fri 09:06:07 AM 52.8310 -13.3240 280° West 492 566 36,600 170 Climbing FlightAware ADS-B
Fri 09:06:43 AM 52.8420 -13.4380 279° West 492 566 36,600  Level FlightAware ADS-B
Fri 09:07:31 AM 52.8560 -13.5900 279° West 492 566 36,600  Level FlightAware ADS-B
Fri 09:08:09 AM 52.8680 -13.7100 279° West 492 566 36,600  Level FlightAware ADS-B
Fri 09:08:57 AM 52.8820 -13.8620 279° West 492 566 36,600  Level FlightAware ADS-B
Fri 09:09:33 AM 52.8930 -13.9760 279° West 492 566 36,600  Level FlightAware ADS-B
Fri 09:10:22 AM 52.9080 -14.1310 279° West 492 566 36,600  Level FlightAware ADS-B
Fri 09:10:59 AM 52.9190 -14.2480 279° West 492 566 36,600  Level FlightAware ADS-B
Fri 09:12:00 AM 52.9370 -14.4420 279° West 492 566 36,600  Level FlightAware ADS-B
Fri 09:12:36 AM 52.9480 -14.5560 279° West 492 566 36,600  Level FlightAware ADS-B
Fri 09:13:36 AM 52.9660 -14.7460 279° West 492 566 36,600  Level FlightAware ADS-B
Fri 09:14:12 AM 52.9770 -14.8600 279° West 492 566 36,600  Level FlightAware ADS-B
Fri 09:15:00 AM 52.9920 -15.0130 279° West 492 566 36,600  Level FlightAware ADS-B
Fri 09:15:36 AM 53.0030 -15.1270 279° West 492 566 36,600 20 Level FlightAware ADS-B
Fri 09:18:00 AM 53.0945 -15.6091 288° West  Level Estimated
Fri 09:19:00 AM 53.1320 -15.8105 287° West  Level Estimated
Fri 09:20:00 AM 53.1692 -16.0123 287° West  Level Estimated
Fri 09:21:00 AM 53.2061 -16.2145 287° West  Level Estimated
Fri 09:22:00 AM 53.2426 -16.4170 287° West  Level Estimated
Fri 09:23:00 AM 53.2788 -16.6198 287° West  Level Estimated
Fri 09:24:00 AM 53.3146 -16.8230 287° West  Level Estimated
Fri 09:25:00 AM 53.3501 -17.0266 286° West  Level Estimated
Fri 09:26:00 AM 53.3852 -17.2304 286° West  Level Estimated
Fri 09:27:00 AM 53.4200 -17.4346 286° West  Level Estimated
Fri 09:28:00 AM 53.4544 -17.6392 286° West  Level Estimated
Fri 09:29:00 AM 53.4885 -17.8440 286° West  Level Estimated
Fri 09:30:00 AM 53.5222 -18.0492 286° West  Level Estimated
Fri 09:31:00 AM 53.5556 -18.2547 285° West  Level Estimated
Fri 09:32:00 AM 53.5886 -18.4606 285° West  Level Estimated
Fri 09:33:00 AM 53.6213 -18.6667 285° West  Level Estimated
Fri 09:34:00 AM 53.6536 -18.8732 285° West  Level Estimated
Fri 09:35:00 AM 53.6856 -19.0800 285° West  Level Estimated
Fri 09:35:00 AM 53.0000 -20.0000 265° West 493 567 37,000  Level ETMS Enhanced Traffic Management System
Fri 09:36:00 AM 53.7172 -19.2871 285° West  Level Estimated
Fri 09:37:00 AM 53.7484 -19.4945 284° West  Level Estimated
Fri 09:38:00 AM 53.7793 -19.7022 284° West  Level Estimated
Fri 09:39:00 AM 53.8099 -19.9103 284° West  Level Estimated
Fri 09:40:00 AM 53.8400 -20.1186 284° West  Level Estimated
Fri 09:41:00 AM 52.9159 -21.3571 264° West 493 567 37,000  Level FlightAware Transoceanic
Fri 09:42:00 AM 52.9003 -21.5828 263° West 493 567 37,000  Level FlightAware Transoceanic
Fri 09:43:00 AM 52.8844 -21.8083 263° West 493 567 37,000  Level FlightAware Transoceanic
Fri 09:44:00 AM 52.8680 -22.0336 263° West 493 567 37,000  Level FlightAware Transoceanic
Fri 09:45:00 AM 52.8512 -22.2588 263° West 493 567 37,000  Level FlightAware Transoceanic
Fri 09:46:00 AM 52.8340 -22.4838 263° West 493 567 37,000  Level FlightAware Transoceanic
Fri 09:47:00 AM 52.8163 -22.7086 263° West 493 567 37,000  Level FlightAware Transoceanic
Fri 09:48:00 AM 52.7982 -22.9332 262° West 493 567 37,000  Level FlightAware Transoceanic
Fri 09:49:00 AM 52.7797 -23.1576 262° West 493 567 37,000  Level FlightAware Transoceanic
Fri 09:50:00 AM 52.7608 -23.3818 262° West 493 567 37,000  Level FlightAware Transoceanic
Fri 09:51:00 AM 52.7415 -23.6059 262° West 493 567 37,000  Level FlightAware Transoceanic
Fri 09:52:00 AM 52.7217 -23.8297 262° West 493 567 37,000  Level FlightAware Transoceanic
Fri 09:53:00 AM 52.7015 -24.0533 261° West 493 567 37,000  Level FlightAware Transoceanic
Fri 09:54:00 AM 52.6809 -24.2768 261° West 493 567 37,000  Level FlightAware Transoceanic
Fri 09:55:00 AM 52.6598 -24.5000 261° West 493 567 37,000  Level FlightAware Transoceanic
Fri 09:56:00 AM 52.6384 -24.7229 261° West 493 567 37,000  Level FlightAware Transoceanic
Fri 09:57:00 AM 52.6165 -24.9457 261° West 493 567 37,000  Level FlightAware Transoceanic
Fri 09:58:00 AM 52.5942 -25.1682 261° West 493 567 37,000  Level FlightAware Transoceanic
Fri 09:59:00 AM 52.5715 -25.3906 260° West 493 567 37,000  Level FlightAware Transoceanic
Fri 10:00:00 AM 52.5484 -25.6126 260° West 493 567 37,000  Level FlightAware Transoceanic
Fri 10:01:00 AM 52.5249 -25.8345 260° West 493 567 37,000  Level FlightAware Transoceanic
Fri 10:02:00 AM 52.5009 -26.0561 260° West 493 567 37,000  Level FlightAware Transoceanic
Fri 10:03:00 AM 52.4766 -26.2775 260° West 493 567 37,000  Level FlightAware Transoceanic
Fri 10:04:00 AM 52.4518 -26.4986 259° West 493 567 37,000  Level FlightAware Transoceanic
Fri 10:05:00 AM 52.4266 -26.7195 259° West 493 567 37,000  Level FlightAware Transoceanic
Fri 10:06:00 AM 52.4010 -26.9401 259° West 493 567 37,000  Level FlightAware Transoceanic
Fri 10:07:00 AM 52.3750 -27.1604 259° West 493 567 37,000  Level FlightAware Transoceanic
Fri 10:08:00 AM 52.3486 -27.3805 259° West 493 567 37,000  Level FlightAware Transoceanic
Fri 10:09:00 AM 52.3218 -27.6003 259° West 493 567 37,000  Level FlightAware Transoceanic
Fri 10:10:00 AM 52.2945 -27.8199 258° West 493 567 37,000  Level FlightAware Transoceanic
Fri 10:11:00 AM 52.2669 -28.0392 258° West 493 567 37,000  Level FlightAware Transoceanic
Fri 10:12:00 AM 52.2388 -28.2582 258° West 493 567 37,000  Level FlightAware Transoceanic
Fri 10:13:00 AM 52.2104 -28.4769 258° West 493 567 37,000  Level FlightAware Transoceanic
Fri 10:14:00 AM 52.1815 -28.6954 258° West 493 567 37,000  Level FlightAware Transoceanic
Fri 10:15:00 AM 52.1523 -28.9136 258° West 493 567 37,000  Level FlightAware Transoceanic
Fri 10:16:00 AM 52.1226 -29.1314 257° West 493 567 37,000  Level FlightAware Transoceanic
Fri 10:17:00 AM 52.0926 -29.3490 257° West 493 567 37,000  Level FlightAware Transoceanic
Fri 10:18:00 AM 52.0621 -29.5663 257° West 493 567 37,000  Level FlightAware Transoceanic
Fri 10:19:00 AM 52.0313 -29.7833 257° West 493 567 37,000  Level FlightAware Transoceanic
Fri 10:20:00 AM 52.0024 -29.9836 257° West  Level FlightAware Approximate
Fri 10:21:00 AM 51.9731 -30.1837 257° West  Level FlightAware Approximate
Fri 10:22:00 AM 51.9745 -30.1669 256° West  Level FlightAware Approximate
Fri 10:23:00 AM 51.9437 -30.3662 256° West  Level FlightAware Approximate
Fri 10:24:00 AM 51.9125 -30.5652 256° West  Level FlightAware Approximate
Fri 10:25:00 AM 51.8811 -30.7639 256° West  Level FlightAware Approximate
Fri 10:26:00 AM 51.8493 -30.9624 256° West  Level FlightAware Approximate
Fri 10:27:00 AM 51.8171 -31.1606 255° West  Level FlightAware Approximate
Fri 10:28:00 AM 51.7846 -31.3585 255° West  Level FlightAware Approximate
Fri 10:29:00 AM 51.7518 -31.5561 255° West  Level FlightAware Approximate
Fri 10:30:00 AM 51.7187 -31.7534 255° West  Level FlightAware Approximate
Fri 10:31:00 AM 51.6852 -31.9504 255° West  Level FlightAware Approximate
Fri 10:32:00 AM 51.6514 -32.1472 255° West  Level FlightAware Approximate
Fri 10:33:00 AM 51.6173 -32.3436 254° West  Level FlightAware Approximate
Fri 10:34:00 AM 51.5828 -32.5398 254° West  Level FlightAware Approximate
Fri 10:35:00 AM 51.5480 -32.7356 254° West  Level FlightAware Approximate
Fri 10:36:00 AM 51.5129 -32.9312 254° West  Level FlightAware Approximate
Fri 10:37:00 AM 51.4775 -33.1264 254° West  Level FlightAware Approximate
Fri 10:38:00 AM 51.4417 -33.3214 254° West  Level FlightAware Approximate
Fri 10:39:00 AM 51.4057 -33.5160 254° West  Level FlightAware Approximate
Fri 10:40:00 AM 51.3693 -33.7103 253° West  Level FlightAware Approximate
Fri 10:41:00 AM 51.3326 -33.9043 253° West  Level FlightAware Approximate
Fri 10:42:00 AM 51.2955 -34.0980 253° West  Level FlightAware Approximate
Fri 10:43:00 AM 51.2581 -34.2914 253° West  Level FlightAware Approximate
Fri 10:44:00 AM 51.2205 -34.4845 253° West  Level FlightAware Approximate
Fri 10:45:00 AM 51.1825 -34.6773 253° West  Level FlightAware Approximate
Fri 10:46:00 AM 51.1442 -34.8697 252° West  Level FlightAware Approximate
Fri 10:47:00 AM 51.1055 -35.0618 252° West  Level FlightAware Approximate
Fri 10:48:00 AM 51.0666 -35.2536 252° West  Level FlightAware Approximate
Fri 10:49:00 AM 51.0274 -35.4451 252° West  Level FlightAware Approximate
Fri 10:50:00 AM 50.9878 -35.6362 252° West  Level FlightAware Approximate
Fri 10:51:00 AM 50.9479 -35.8271 252° West  Level FlightAware Approximate
Fri 10:52:00 AM 50.9077 -36.0176 252° West  Level FlightAware Approximate
Fri 10:53:00 AM 50.8672 -36.2077 251° West  Level FlightAware Approximate
Fri 10:54:00 AM 50.8264 -36.3975 251° West  Level FlightAware Approximate
Fri 10:55:00 AM 50.7853 -36.5870 251° West  Level FlightAware Approximate
Fri 10:56:00 AM 50.7439 -36.7762 251° West  Level FlightAware Approximate
Fri 10:57:00 AM 50.7021 -36.9650 251° West  Level FlightAware Approximate
Fri 10:58:00 AM 50.6601 -37.1535 251° West  Level FlightAware Approximate
Fri 10:59:00 AM 50.6178 -37.3417 251° West  Level FlightAware Approximate
Fri 11:00:00 AM 50.5751 -37.5295 250° West  Level FlightAware Approximate
Fri 11:01:00 AM 50.5334 -37.7176 251° West  Level FlightAware Approximate
Fri 11:02:00 AM 50.4916 -37.9056 251° West  Level FlightAware Approximate
Fri 11:03:00 AM 50.4495 -38.0932 251° West  Level FlightAware Approximate
Fri 11:04:00 AM 50.4071 -38.2804 251° West  Level FlightAware Approximate
Fri 11:05:00 AM 50.3648 -38.4657 250° West  Level FlightAware Approximate
Fri 11:06:00 AM 50.3222 -38.6506 250° West  Level FlightAware Approximate
Fri 11:07:00 AM 50.2793 -38.8351 250° West  Level FlightAware Approximate
Fri 11:08:00 AM 50.2361 -39.0193 250° West  Level FlightAware Approximate
Fri 11:09:00 AM 50.1926 -39.2032 250° West  Level FlightAware Approximate
Fri 11:10:00 AM 50.1489 -39.3868 250° West  Level FlightAware Approximate
Fri 11:11:00 AM 50.1048 -39.5700 250° West  Level FlightAware Approximate
Fri 11:12:00 AM 50.0605 -39.7529 249° West  Level FlightAware Approximate
Fri 11:13:00 AM 50.0159 -39.9354 249° West  Level FlightAware Approximate
Fri 11:14:00 AM 49.9715 -40.1179 249° West  Level FlightAware Approximate
Fri 11:15:00 AM 49.9271 -40.3003 249° West  Level FlightAware Approximate
Fri 11:16:00 AM 49.8825 -40.4823 249° West  Level FlightAware Approximate
Fri 11:17:00 AM 49.8376 -40.6640 249° West  Level FlightAware Approximate
Fri 11:18:00 AM 49.7923 -40.8453 249° West  Level FlightAware Approximate
Fri 11:19:00 AM 49.7468 -41.0263 249° West  Level FlightAware Approximate
Fri 11:20:00 AM 49.7011 -41.2070 249° West  Level FlightAware Approximate
Fri 11:21:00 AM 49.6550 -41.3873 249° West  Level FlightAware Approximate
Fri 11:22:00 AM 49.6087 -41.5673 248° West  Level FlightAware Approximate
Fri 11:23:00 AM 49.5620 -41.7469 248° West  Level FlightAware Approximate
Fri 11:24:00 AM 49.5151 -41.9262 248° West  Level FlightAware Approximate
Fri 11:25:00 AM 49.4680 -42.1051 248° West  Level FlightAware Approximate
Fri 11:26:00 AM 49.4205 -42.2837 248° West  Level FlightAware Approximate
Fri 11:27:00 AM 49.3728 -42.4620 248° West  Level FlightAware Approximate
Fri 11:28:00 AM 49.3248 -42.6399 248° West  Level FlightAware Approximate
Fri 11:29:00 AM 49.2765 -42.8175 247° West  Level FlightAware Approximate
Fri 11:30:00 AM 49.2280 -42.9947 247° West  Level FlightAware Approximate
Fri 11:31:00 AM 49.1792 -43.1716 247° West  Level FlightAware Approximate
Fri 11:32:00 AM 49.1301 -43.3481 247° West  Level FlightAware Approximate
Fri 11:33:00 AM 49.0807 -43.5243 247° West  Level FlightAware Approximate
Fri 11:34:00 AM 49.0311 -43.7001 247° West  Level FlightAware Approximate
Fri 11:35:00 AM 48.9812 -43.8755 247° West  Level FlightAware Approximate
Fri 11:36:00 AM 48.9311 -44.0506 247° West  Level FlightAware Approximate
Fri 11:37:00 AM 48.8807 -44.2254 246° West  Level FlightAware Approximate
Fri 11:38:00 AM 48.8300 -44.3998 246° West  Level FlightAware Approximate
Fri 11:39:00 AM 48.7790 -44.5738 246° West  Level FlightAware Approximate
Fri 11:40:00 AM 48.7279 -44.7476 246° West  Level FlightAware Approximate
Fri 11:41:00 AM 48.6764 -44.9209 246° West  Level FlightAware Approximate
Fri 11:42:00 AM 48.6247 -45.0939 246° West  Level FlightAware Approximate
Fri 11:43:00 AM 48.5727 -45.2665 246° West  Level FlightAware Approximate
Fri 11:44:00 AM 48.5205 -45.4388 245° Southwest  Level FlightAware Approximate
Fri 11:45:00 AM 48.4679 -45.6107 245° Southwest  Level FlightAware Approximate
Fri 11:46:00 AM 48.4152 -45.7823 245° Southwest  Level FlightAware Approximate
Fri 11:47:00 AM 48.3622 -45.9535 245° Southwest  Level FlightAware Approximate
Fri 11:48:00 AM 48.3089 -46.1244 245° Southwest  Level FlightAware Approximate
Fri 11:49:00 AM 48.2554 -46.2949 245° Southwest  Level FlightAware Approximate
Fri 11:50:00 AM 48.2017 -46.4650 245° Southwest  Level FlightAware Approximate
Fri 11:51:00 AM 48.1477 -46.6348 245° Southwest  Level FlightAware Approximate
Fri 11:52:00 AM 48.0934 -46.8042 244° Southwest  Level FlightAware Approximate
Fri 11:53:00 AM 48.0389 -46.9733 244° Southwest  Level FlightAware Approximate
Fri 11:54:00 AM 47.9841 -47.1420 244° Southwest  Level FlightAware Approximate
Fri 11:55:00 AM 47.9291 -47.3103 244° Southwest  Level FlightAware Approximate
Fri 11:56:00 AM 47.8739 -47.4783 244° Southwest  Level FlightAware Approximate
Fri 11:57:00 AM 47.8184 -47.6460 244° Southwest  Level FlightAware Approximate
Fri 11:58:00 AM 47.7626 -47.8132 244° Southwest  Level FlightAware Approximate
Fri 11:59:00 AM 47.7066 -47.9801 244° Southwest  Level FlightAware Approximate
Fri 12:00:00 PM 47.6504 -48.1467 243° Southwest  Level FlightAware Approximate
Fri 12:01:00 PM 47.5940 -48.3129 243° Southwest  Level FlightAware Approximate
Fri 12:02:00 PM 47.5373 -48.4787 243° Southwest  Level FlightAware Approximate
Fri 12:03:00 PM 47.4803 -48.6442 243° Southwest  Level FlightAware Approximate
Fri 12:04:00 PM 47.4231 -48.8093 243° Southwest  Level FlightAware Approximate
Fri 12:05:00 PM 47.3657 -48.9741 243° Southwest  Level FlightAware Approximate
Fri 12:05:38 PM 47.2240 -49.4310 243° Southwest 485 558 37,000  Level FlightAware ADS-B
Fri 12:06:00 PM 47.3081 -49.1385 243° Southwest  Level FlightAware Approximate
Fri 12:06:17 PM 47.1850 -49.5390 242° Southwest 486 559 37,000  Level FlightAware ADS-B
Fri 12:07:11 PM 47.1290 -49.6960 242° Southwest 486 559 37,000  Level FlightAware ADS-B
Fri 12:08:12 PM 47.0740 -49.8470 242° Southwest 486 559 37,000  Level FlightAware ADS-B
Fri 12:08:58 PM 47.0330 -49.9610 242° Southwest 486 559 37,000  Level FlightAware ADS-B
Fri 12:09:34 PM 47.0000 -50.0500 241° Southwest 486 559 37,000  Level FlightAware ADS-B
Fri 12:10:20 PM 46.9590 -50.1640 242° Southwest 486 559 37,000  Level FlightAware ADS-B
Fri 12:11:21 PM 46.9040 -50.3140 242° Southwest 486 559 37,000  Level FlightAware ADS-B
Fri 12:11:57 PM 46.8720 -50.4030 242° Southwest 486 559 37,000  Level FlightAware ADS-B
Fri 12:12:43 PM 46.8310 -50.5170 242° Southwest 486 559 37,000  Level FlightAware ADS-B
Fri 12:13:21 PM 46.7970 -50.6110 242° Southwest 486 559 37,000  Level FlightAware ADS-B
Fri 12:13:55 PM 46.7660 -50.6940 241° Southwest 486 559 37,000  Level FlightAware ADS-B
Fri 12:14:14 PM 46.8720 -51.0360 294° West 487 560 37,000  Level FlightAware ADS-B
Fri 12:14:51 PM 46.8570 -51.1380 258° West 487 560 37,000 640 Level FlightAware ADS-B
Fri 12:15:29 PM 46.8450 -51.2740 263° West 485 558 37,800 723 Climbing FlightAware ADS-B
Fri 12:16:14 PM 46.8310 -51.4280 262° West 488 562 38,000 121 Climbing FlightAware ADS-B
Fri 12:17:08 PM 46.8170 -51.5930 263° West 488 562 38,000  Level FlightAware ADS-B
Fri 12:17:59 PM 46.8020 -51.7740 263° West 487 560 38,000  Level FlightAware ADS-B
Fri 12:18:41 PM 46.7910 -51.9120 263° West 488 562 38,000  Level FlightAware ADS-B
Fri 12:19:21 PM 46.7790 -52.0440 262° West 488 562 38,000  Level FlightAware ADS-B
Fri 12:20:03 PM 46.7680 -52.1780 263° West 488 562 38,000  Level FlightAware ADS-B
Fri 12:20:45 PM 46.7560 -52.3140 263° West 488 562 38,000  Level FlightAware ADS-B
Fri 12:21:23 PM 46.7440 -52.4400 262° West 487 560 38,000  Level FlightAware ADS-B
Fri 12:22:07 PM 46.7310 -52.5820 262° West 487 560 38,000  Level FlightAware ADS-B
Fri 12:22:43 PM 46.7200 -52.6980 262° West 488 562 38,000  Level FlightAware ADS-B
Fri 12:23:23 PM 46.7080 -52.8270 262° West 488 562 38,000  Level FlightAware ADS-B
Fri 12:24:08 PM 46.6940 -52.9730 262° West 488 562 38,000  Level FlightAware ADS-B
Fri 12:24:51 PM 46.6810 -53.1120 262° West 487 560 38,000  Level FlightAware ADS-B
Fri 12:25:33 PM 46.6670 -53.2490 262° West 488 562 38,000  Level FlightAware ADS-B
Fri 12:26:13 PM 46.6550 -53.3810 263° West 489 563 38,000  Level FlightAware ADS-B
Fri 12:26:55 PM 46.6410 -53.5160 261° West 488 562 38,000  Level FlightAware ADS-B
Fri 12:27:39 PM 46.6260 -53.6600 261° West 488 562 38,000  Level FlightAware ADS-B
Fri 12:28:17 PM 46.6140 -53.7820 262° West 488 562 38,000  Level FlightAware ADS-B
Fri 12:29:01 PM 46.5990 -53.9230 261° West 488 562 38,000  Level FlightAware ADS-B
Fri 12:29:45 PM 46.5850 -54.0510 261° West 488 562 38,000  Level FlightAware ADS-B
Fri 12:30:21 PM 46.5750 -54.1510 262° West 488 562 38,000  Level FlightAware ADS-B
Fri 12:31:11 PM 46.5600 -54.2880 261° West 488 562 38,000  Level FlightAware ADS-B
Fri 12:31:44 PM 46.5440 -54.4380 261° West 38,000  Level FlightAware ADS-B
Fri 12:32:31 PM 46.5270 -54.5900 261° West 488 562 38,000  Level FlightAware ADS-B
Fri 12:33:11 PM 46.5140 -54.7000 260° West 488 562 38,000  Level FlightAware ADS-B
Fri 12:33:53 PM 46.4970 -54.8610 261° West 488 562 38,000  Level FlightAware ADS-B
Fri 12:34:28 PM 46.4840 -54.9760 261° West 487 560 38,000  Level FlightAware ADS-B
Fri 12:35:15 PM 46.4660 -55.1310 260° West 487 560 38,000  Level FlightAware ADS-B
Fri 12:35:51 PM 46.4530 -55.2430 260° West 487 560 38,000  Level FlightAware ADS-B
Fri 12:36:27 PM 46.4390 -55.3600 260° West 486 559 38,000  Level FlightAware ADS-B
Fri 12:37:13 PM 46.4220 -55.5070 261° West 487 560 38,000  Level FlightAware ADS-B
Fri 12:38:09 PM 46.4000 -55.6910 260° West 486 559 38,000  Level FlightAware ADS-B
Fri 12:39:00 PM 46.3810 -55.8460 260° West 486 559 38,000  Level FlightAware ADS-B
Fri 12:39:45 PM 46.3630 -55.9920 260° West 486 559 38,000  Level FlightAware ADS-B
Fri 12:40:24 PM 46.3490 -56.0990 259° West 486 559 38,000  Level FlightAware ADS-B
Fri 12:41:04 PM 46.3320 -56.2450 260° West 38,000  Level FlightAware ADS-B
Fri 12:42:07 PM 46.3060 -56.4480 260° West 487 560 38,000  Level FlightAware ADS-B
Fri 12:43:29 PM 46.2730 -56.7070 260° West 485 558 38,000  Level FlightAware ADS-B
Fri 12:44:13 PM 46.2540 -56.8520 259° West 485 558 38,000  Level FlightAware ADS-B
Fri 12:44:52 PM 46.2390 -56.9610 259° West 485 558 38,000  Level FlightAware ADS-B
Fri 12:45:33 PM 46.2210 -57.0960 259° West 485 558 38,000  Level FlightAware ADS-B
Fri 12:46:32 PM 46.2000 -57.2550 259° West 485 558 38,000  Level FlightAware ADS-B
Fri 12:47:09 PM 46.1790 -57.4080 259° West 484 557 38,000  Level FlightAware ADS-B
Fri 12:47:49 PM 46.1630 -57.5150 258° West 484 557 38,000  Level FlightAware ADS-B
Fri 12:48:26 PM 46.1480 -57.6150 258° West 484 557 38,000  Level FlightAware ADS-B
Fri 12:49:14 PM 46.1290 -57.7440 258° West 484 557 38,000  Level FlightAware ADS-B
Fri 12:49:50 PM 46.1150 -57.8400 258° West 484 557 38,000  Level FlightAware ADS-B
Fri 12:50:36 PM 46.0880 -58.0600 260° West 484 557 38,000  Level FlightAware ADS-B
Fri 12:51:18 PM 46.0690 -58.1930 258° West 483 556 38,000  Level FlightAware ADS-B
Fri 12:51:56 PM 46.0510 -58.3120 258° West 483 556 38,000  Level FlightAware ADS-B
Fri 12:52:44 PM 46.0290 -58.4620 258° West 482 555 38,000  Level FlightAware ADS-B
Fri 12:53:24 PM 46.0110 -58.5860 258° West 481 554 38,000  Level FlightAware ADS-B
Fri 12:54:06 PM 45.9920 -58.7180 258° West 481 554 38,000  Level FlightAware ADS-B
Fri 12:54:48 PM 45.9720 -58.8500 258° West 479 551 38,000  Level FlightAware ADS-B
Fri 12:55:30 PM 45.9520 -58.9800 258° West 478 550 38,000  Level FlightAware ADS-B
Fri 12:56:14 PM 45.9310 -59.1160 258° West 479 551 38,000  Level FlightAware ADS-B
Fri 12:56:53 PM 45.9130 -59.2350 258° West 478 550 38,000  Level FlightAware ADS-B
Fri 12:57:28 PM 45.8960 -59.3440 257° West 478 550 38,000  Level FlightAware ADS-B
Fri 12:58:10 PM 45.8760 -59.4750 258° West 478 550 38,000  Level FlightAware ADS-B
Fri 12:58:52 PM 45.8550 -59.6060 257° West 478 550 38,000  Level FlightAware ADS-B
Fri 12:59:26 PM 45.8390 -59.7110 258° West 478 550 38,000  Level FlightAware ADS-B
Fri 01:00:08 PM 45.8180 -59.8390 257° West 479 551 38,000  Level FlightAware ADS-B
Fri 01:00:54 PM 45.7950 -59.9810 257° West 478 550 38,000  Level FlightAware ADS-B
Fri 01:01:32 PM 45.7770 -60.0970 257° West 477 549 38,000  Level FlightAware ADS-B
Fri 01:02:12 PM 45.7570 -60.2200 257° West 476 548 38,000  Level FlightAware ADS-B
Fri 01:03:00 PM 45.7320 -60.3670 256° West 475 547 38,000  Level FlightAware ADS-B
Fri 01:03:42 PM 45.7110 -60.4940 257° West 474 545 38,000  Level FlightAware ADS-B
Fri 01:04:18 PM 45.6930 -60.6050 257° West 473 544 38,000  Level FlightAware ADS-B
Fri 01:04:58 PM 45.6720 -60.7260 256° West 473 544 38,000  Level FlightAware ADS-B
Fri 01:05:40 PM 45.6510 -60.8520 257° West 474 545 38,000  Level FlightAware ADS-B
Fri 01:06:30 PM 45.6280 -60.9870 256° West 474 545 38,000  Level FlightAware ADS-B
Fri 01:07:08 PM 45.6050 -61.1190 256° West 473 544 38,000  Level FlightAware ADS-B
Fri 01:07:48 PM 45.5860 -61.2300 256° West 472 543 38,000  Level FlightAware ADS-B
Fri 01:08:46 PM 45.5600 -61.3790 256° West 472 543 38,000  Level FlightAware ADS-B
Fri 01:09:22 PM 45.5440 -61.4720 256° West 472 543 38,000  Level FlightAware ADS-B
Fri 01:10:10 PM 45.5220 -61.5950 256° West 472 543 38,000  Level FlightAware ADS-B
Fri 01:10:47 PM 45.5060 -61.6900 257° West 472 543 38,000  Level FlightAware ADS-B
Fri 01:11:47 PM 45.4790 -61.8440 256° West 472 543 38,000  Level FlightAware ADS-B
Fri 01:12:21 PM 45.4630 -61.9320 255° West 472 543 38,000  Level FlightAware ADS-B
Fri 01:13:09 PM 45.4420 -62.0550 256° West 472 543 38,000  Level FlightAware ADS-B
Fri 01:13:46 PM 45.4250 -62.1500 256° West 472 543 38,000  Level FlightAware ADS-B
Fri 01:14:35 PM 45.4030 -62.2760 256° West 472 543 38,000  Level FlightAware ADS-B
Fri 01:15:11 PM 45.3870 -62.3680 256° West 472 543 38,000  Level FlightAware ADS-B
Fri 01:15:59 PM 45.3650 -62.4910 256° West 472 543 38,000  Level FlightAware ADS-B
Fri 01:16:35 PM 45.3490 -62.5830 256° West 472 543 38,000 -1,043 Level FlightAware ADS-B
Fri 01:19:14 PM 45.2110 -63.2710 254° West 34,000 -1,237 Descending FlightAware ADS-B
Fri 01:19:49 PM 45.1900 -63.3810 255° West 482 555 34,000  Level FlightAware ADS-B
Fri 01:20:29 PM 45.1660 -63.5050 255° West 482 555 34,000  Level FlightAware ADS-B
Fri 01:21:09 PM 45.1430 -63.6190 254° West 481 554 34,000  Level FlightAware ADS-B
Fri 01:21:54 PM 45.1160 -63.7560 254° West 479 551 34,000  Level FlightAware ADS-B
Fri 01:22:34 PM 45.0920 -63.8760 254° West 474 545 34,000  Level FlightAware ADS-B
Fri 01:23:19 PM 45.0650 -64.0080 254° West 472 543 34,000  Level FlightAware ADS-B
Fri 01:24:00 PM 45.0390 -64.1380 254° West 471 542 34,000  Level FlightAware ADS-B
Fri 01:24:44 PM 45.0130 -64.2670 254° West 470 541 34,000  Level FlightAware ADS-B
Fri 01:25:24 PM 44.9890 -64.3850 254° West 469 540 34,000  Level FlightAware ADS-B
Fri 01:26:04 PM 44.9650 -64.5030 254° West 468 539 34,000  Level FlightAware ADS-B
Fri 01:26:48 PM 44.9380 -64.6290 253° West 468 539 34,000  Level FlightAware ADS-B
Fri 01:27:32 PM 44.9110 -64.7590 254° West 469 540 34,000  Level FlightAware ADS-B
Fri 01:28:12 PM 44.8870 -64.8770 254° West 470 541 34,000  Level FlightAware ADS-B
Fri 01:28:56 PM 44.8590 -65.0060 253° West 469 540 34,000  Level FlightAware ADS-B
Fri 01:29:36 PM 44.8350 -65.1210 254° West 468 539 34,000  Level FlightAware ADS-B
Fri 01:30:18 PM 44.8080 -65.2450 253° West 467 537 34,000  Level FlightAware ADS-B
Fri 01:30:58 PM 44.7840 -65.3600 254° West 467 537 34,000  Level FlightAware ADS-B
Fri 01:31:38 PM 44.7590 -65.4740 253° West 467 537 34,000  Level FlightAware ADS-B
Fri 01:32:21 PM 44.7320 -65.5970 253° West 467 537 34,000  Level FlightAware ADS-B
Fri 01:33:06 PM 44.7030 -65.7310 253° West 465 535 34,000  Level FlightAware ADS-B
Fri 01:33:46 PM 44.6820 -65.8500 256° West 467 537 34,000  Level FlightAware ADS-B
Fri 01:34:22 PM 44.6760 -65.9580 266° West 470 541 34,000  Level FlightAware ADS-B
Fri 01:35:08 PM 44.6750 -66.0940 269° West 471 542 34,000  Level FlightAware ADS-B
Fri 01:36:17 PM 44.6720 -66.3050 269° West 472 543 34,000  Level FlightAware ADS-B
Fri 01:37:02 PM 44.6710 -66.4450 269° West 472 543 34,000  Level FlightAware ADS-B
Fri 01:37:46 PM 44.6690 -66.5790 269° West 472 543 34,000  Level FlightAware ADS-B
Fri 01:38:28 PM 44.6670 -66.7080 269° West 472 543 34,000  Level FlightAware ADS-B
Fri 01:39:10 PM 44.6650 -66.8360 269° West 471 542 34,000  Level FlightAware ADS-B
Fri 01:39:50 PM 44.6650 -66.9560 270° West 472 543 34,000  Level FlightAware ADS-B
Fri 01:40:32 PM 44.6770 -67.0850 277° West 474 545 34,000  Level FlightAware ADS-B
Fri 01:41:16 PM 44.6950 -67.2180 281° West 477 549 34,000  Level FlightAware ADS-B
Fri 01:42:00 PM 44.7150 -67.3520 282° West 475 547 34,000  Level FlightAware ADS-B
Fri 01:42:38 PM 44.7330 -67.4680 282° West 475 547 34,000  Level FlightAware ADS-B
Fri 01:43:20 PM 44.7510 -67.5940 281° West 472 543 34,000  Level FlightAware ADS-B
Fri 01:44:04 PM 44.7610 -67.7260 276° West 471 542 34,000  Level FlightAware ADS-B
Fri 01:45:00 PM 44.7630 -67.8960 271° West 465 535 34,000  Level FlightAware ADS-B
Fri 01:45:44 PM 44.7590 -68.0290 268° West 465 535 34,000  Level FlightAware ADS-B
Fri 01:46:20 PM 44.7540 -68.1370 266° West 465 535 34,000  Level FlightAware ADS-B
Fri 01:47:00 PM 44.7490 -68.2580 267° West 465 535 34,000  Level FlightAware ADS-B
Fri 01:47:42 PM 44.7430 -68.3850 266° West 467 537 34,000  Level FlightAware ADS-B
Fri 01:47:54 PM 44.7410 -68.4190 265° West 468 539 34,000  Level FlightAware ADS-B
Fri 01:49:12 PM 44.7300 -68.6580 266° West 469 540 34,000  Level FlightAware ADS-B
Fri 01:49:52 PM 44.7240 -68.7790 266° West 468 539 34,000  Level FlightAware ADS-B
Fri 01:50:32 PM 44.7180 -68.8990 266° West 469 540 34,000  Level FlightAware ADS-B
Fri 01:51:16 PM 44.7110 -69.0330 266° West 471 542 34,000  Level FlightAware ADS-B
Fri 01:51:58 PM 44.7050 -69.1600 266° West 473 544 34,000  Level FlightAware ADS-B
Fri 01:52:42 PM 44.6970 -69.2990 265° West 474 545 34,000  Level FlightAware ADS-B
Fri 01:53:26 PM 44.6900 -69.4260 266° West 473 544 34,000  Level FlightAware ADS-B
Fri 01:54:06 PM 44.6830 -69.5540 266° West 474 545 34,000  Level FlightAware ADS-B
Fri 01:54:45 PM 44.6760 -69.6740 265° West 475 547 34,000  Level FlightAware ADS-B
Fri 01:55:29 PM 44.6680 -69.8110 265° West 475 547 34,000  Level FlightAware ADS-B
Fri 01:56:12 PM 44.6610 -69.9360 266° West 473 544 34,000  Level FlightAware ADS-B
Fri 01:56:55 PM 44.6530 -70.0720 265° West 471 542 34,000  Level FlightAware ADS-B
Fri 01:57:33 PM 44.6450 -70.1880 265° West 471 542 34,000  Level FlightAware ADS-B
Fri 01:58:17 PM 44.6370 -70.3230 265° West 469 540 34,000  Level FlightAware ADS-B
Fri 01:58:59 PM 44.6290 -70.4460 265° West 468 539 34,000  Level FlightAware ADS-B
Fri 01:59:42 PM 44.6210 -70.5730 265° West 469 540 34,000  Level FlightAware ADS-B
Fri 02:00:43 PM 44.6090 -70.7530 265° West 470 541 34,000  Level FlightAware ADS-B
Fri 02:01:28 PM 44.6000 -70.8930 265° West 468 539 34,000  Level FlightAware ADS-B
Fri 02:02:03 PM 44.5920 -71.0020 264° West 468 539 34,000  Level FlightAware ADS-B
Fri 02:02:45 PM 44.5830 -71.1310 264° West 467 537 34,000  Level FlightAware ADS-B
Fri 02:03:25 PM 44.5740 -71.2520 264° West 467 537 34,000  Level FlightAware ADS-B
Fri 02:04:03 PM 44.5670 -71.3630 265° West 467 537 34,000  Level FlightAware ADS-B
Fri 02:04:39 PM 44.5580 -71.4730 263° West 466 536 34,000  Level FlightAware ADS-B
Fri 02:05:25 PM 44.5480 -71.6120 264° West 466 536 34,000  Level FlightAware ADS-B
Fri 02:06:05 PM 44.5390 -71.7310 264° West 465 535 34,000  Level FlightAware ADS-B
Fri 02:06:46 PM 44.5300 -71.8510 264° West 465 535 34,000  Level FlightAware ADS-B
Fri 02:07:33 PM 44.5190 -71.9940 264° West 465 535 34,000  Level FlightAware ADS-B
Fri 02:08:12 PM 44.5100 -72.1100 264° West 466 536 34,000  Level FlightAware ADS-B
Fri 02:08:57 PM 44.4990 -72.2440 263° West 468 539 34,000  Level FlightAware ADS-B
Fri 02:09:31 PM 44.4910 -72.3480 264° West 469 540 34,000  Level FlightAware ADS-B
Fri 02:10:07 PM 44.4820 -72.4580 263° West 469 540 34,000  Level FlightAware ADS-B
Fri 02:10:55 PM 44.4700 -72.6010 263° West 469 540 34,000  Level FlightAware ADS-B
Fri 02:11:27 PM 44.4620 -72.6990 264° West 470 541 34,000  Level FlightAware ADS-B
Fri 02:12:10 PM 44.4510 -72.8230 263° West 469 540 34,000  Level FlightAware ADS-B
Fri 02:12:50 PM 44.4400 -72.9460 263° West 468 539 34,000  Level FlightAware ADS-B
Fri 02:13:28 PM 44.4310 -73.0580 264° West 467 537 34,000  Level FlightAware ADS-B
Fri 02:13:58 PM 44.4230 -73.1480 263° West 467 537 34,000  Level FlightAware ADS-B
Fri 02:14:43 PM 44.4110 -73.2830 263° West 466 536 34,000  Level FlightAware ADS-B
Fri 02:15:28 PM 44.3990 -73.4160 263° West 465 535 34,000  Level FlightAware ADS-B
Fri 02:16:09 PM 44.3880 -73.5370 263° West 464 534 34,000  Level FlightAware ADS-B
Fri 02:16:43 PM 44.3780 -73.6420 262° West 464 534 34,000  Level FlightAware ADS-B
Fri 02:17:23 PM 44.3670 -73.7600 263° West 466 536 34,000  Level FlightAware ADS-B
Fri 02:18:03 PM 44.3560 -73.8790 263° West 466 536 34,000  Level FlightAware ADS-B
Fri 02:18:43 PM 44.3440 -73.9980 262° West 465 535 34,000  Level FlightAware ADS-B
Fri 02:19:23 PM 44.3330 -74.1190 263° West 467 537 34,000  Level FlightAware ADS-B
Fri 02:20:03 PM 44.3210 -74.2380 262° West 468 539 34,000  Level FlightAware ADS-B
Fri 02:20:48 PM 44.3080 -74.3730 262° West 467 537 34,000  Level FlightAware ADS-B
Fri 02:21:28 PM 44.2960 -74.4890 262° West 468 539 34,000  Level FlightAware ADS-B
Fri 02:22:13 PM 44.2820 -74.6250 262° West 469 540 34,000  Level FlightAware ADS-B
Fri 02:22:54 PM 44.2700 -74.7430 262° West 470 541 34,000  Level FlightAware ADS-B
Fri 02:23:29 PM 44.2600 -74.8460 262° West 472 543 34,000  Level FlightAware ADS-B
Fri 02:24:13 PM 44.2460 -74.9710 261° West 471 542 34,000 145 Level FlightAware ADS-B
Fri 02:24:52 PM 44.2330 -75.0960 262° West 473 544 34,200 608 Climbing FlightAware ADS-B
Fri 02:25:32 PM 44.2200 -75.2180 262° West 478 550 34,800 973 Climbing FlightAware ADS-B
Fri 02:26:06 PM 44.2090 -75.3200 261° West 481 554 35,400 1,185 Climbing FlightAware ADS-B
Fri 02:26:53 PM 44.1950 -75.4570 262° West 476 548 36,400 1,121 Climbing FlightAware ADS-B
Fri 02:27:37 PM 44.1790 -75.5980 261° West 476 548 37,100 1,012 Climbing FlightAware ADS-B
Fri 02:28:16 PM 44.1650 -75.7190 261° West 472 543 37,800 684 Climbing FlightAware ADS-B
Fri 02:28:56 PM 44.1520 -75.8360 261° West 469 540 38,000 140 Climbing FlightAware ADS-B
Fri 02:29:42 PM 44.1370 -75.9720 261° West 468 539 38,000  Level FlightAware ADS-B
Fri 02:30:21 PM 44.1240 -76.0880 261° West 466 536 38,000  Level FlightAware ADS-B
Fri 02:31:01 PM 44.1110 -76.1990 261° West 466 536 38,000  Level FlightAware ADS-B
Fri 02:31:47 PM 44.0930 -76.3500 261° West 466 536 38,000  Level FlightAware ADS-B
Fri 02:32:31 PM 44.0780 -76.4810 261° West 464 534 38,000  Level FlightAware ADS-B
Fri 02:33:08 PM 44.0650 -76.5860 260° West 462 532 38,000  Level FlightAware ADS-B
Fri 02:33:55 PM 44.0480 -76.7260 260° West 462 532 38,000  Level FlightAware ADS-B
Fri 02:34:31 PM 44.0360 -76.8300 261° West 463 533 38,000  Level FlightAware ADS-B
Fri 02:35:09 PM 44.0220 -76.9430 260° West 464 534 38,000  Level FlightAware ADS-B
Fri 02:35:51 PM 44.0070 -77.0640 260° West 463 533 38,000  Level FlightAware ADS-B
Fri 02:36:36 PM 43.9910 -77.1940 260° West 459 528 38,000  Level FlightAware ADS-B
Fri 02:37:15 PM 43.9770 -77.3060 260° West 454 522 38,000  Level FlightAware ADS-B
Fri 02:38:06 PM 43.9590 -77.4500 260° West 451 519 38,000  Level FlightAware ADS-B
Fri 02:38:51 PM 43.9420 -77.5770 260° West 451 519 38,000  Level FlightAware ADS-B
Fri 02:39:36 PM 43.9270 -77.6940 260° West 451 519 38,000  Level FlightAware ADS-B
Fri 02:40:16 PM 43.9120 -77.8120 260° West 452 520 38,000  Level FlightAware ADS-B
Fri 02:41:01 PM 43.8940 -77.9470 260° West 453 521 38,000  Level FlightAware ADS-B
Fri 02:41:41 PM 43.8800 -78.0570 260° West 454 522 38,000  Level FlightAware ADS-B
Fri 02:42:21 PM 43.8640 -78.1720 259° West 454 522 38,000  Level FlightAware ADS-B
Fri 02:43:06 PM 43.8470 -78.2960 259° West 454 522 38,000  Level FlightAware ADS-B
Fri 02:43:46 PM 43.8310 -78.4180 260° West 454 522 38,000  Level FlightAware ADS-B
Fri 02:44:26 PM 43.8170 -78.5220 259° West 454 522 38,000  Level FlightAware ADS-B
Fri 02:45:06 PM 43.8000 -78.6440 259° West 455 524 38,000  Level FlightAware ADS-B
Fri 02:45:56 PM 43.7790 -78.7900 259° West 455 524 38,000  Level FlightAware ADS-B
Fri 02:46:31 PM 43.7660 -78.8860 259° West 455 524 38,000  Level FlightAware ADS-B
Fri 02:47:11 PM 43.7500 -78.9980 259° West 455 524 38,000  Level FlightAware ADS-B
Fri 02:47:51 PM 43.7340 -79.1120 259° West 455 524 38,000  Level FlightAware ADS-B
Fri 02:48:32 PM 43.7170 -79.2270 258° West 455 524 38,000  Level FlightAware ADS-B
Fri 02:49:16 PM 43.6980 -79.3570 259° West 455 524 38,000  Level FlightAware ADS-B
Fri 02:49:56 PM 43.6820 -79.4700 259° West 456 525 38,000  Level FlightAware ADS-B
Fri 02:50:41 PM 43.6640 -79.5910 258° West 456 525 38,000  Level FlightAware ADS-B
Fri 02:51:16 PM 43.6500 -79.6950 259° West 455 524 38,000  Level FlightAware ADS-B
Fri 02:52:01 PM 43.6360 -79.8220 261° West 454 522 38,000  Level FlightAware ADS-B
Fri 02:52:42 PM 43.6220 -79.9450 261° West 453 521 38,000  Level FlightAware ADS-B
Fri 02:53:19 PM 43.6090 -80.0500 260° West 453 521 38,000  Level FlightAware ADS-B
Fri 02:53:58 PM 43.5950 -80.1650 260° West 452 520 38,000  Level FlightAware ADS-B
Fri 02:54:39 PM 43.5810 -80.2810 261° West 451 519 38,000  Level FlightAware ADS-B
Fri 02:55:17 PM 43.5680 -80.3890 261° West 448 516 38,000  Level FlightAware ADS-B
Fri 02:56:06 PM 43.5510 -80.5260 260° West 446 513 38,000  Level FlightAware ADS-B
Fri 02:56:46 PM 43.5370 -80.6340 260° West 443 510 38,000  Level FlightAware ADS-B
Fri 02:57:29 PM 43.5220 -80.7560 260° West 440 506 38,000  Level FlightAware ADS-B
Fri 02:58:09 PM 43.5080 -80.8670 260° West 438 504 38,000  Level FlightAware ADS-B
Fri 02:58:45 PM 43.4950 -80.9640 260° West 436 502 38,000  Level FlightAware ADS-B
Fri 02:59:28 PM 43.4800 -81.0820 260° West 434 499 38,000  Level FlightAware ADS-B
Fri 02:59:56 PM 43.4710 -81.1560 261° West 432 497 38,000  Level FlightAware ADS-B
Fri 03:00:30 PM 43.4590 -81.2440 259° West 430 495 38,000  Level FlightAware ADS-B
Fri 03:01:11 PM 43.4440 -81.3600 260° West 429 494 38,000  Level FlightAware ADS-B
Fri 03:01:55 PM 43.4280 -81.4780 259° West 427 491 38,000  Level FlightAware ADS-B
Fri 03:02:37 PM 43.4130 -81.5890 259° West 427 491 38,000  Level FlightAware ADS-B
Fri 03:03:17 PM 43.3990 -81.6950 260° West 426 490 38,000  Level FlightAware ADS-B
Fri 03:04:02 PM 43.3830 -81.8120 259° West 425 489 38,000  Level FlightAware ADS-B
Fri 03:04:37 PM 43.3710 -81.9000 259° West 425 489 38,000  Level FlightAware ADS-B
Fri 03:05:29 PM 43.3530 -82.0350 260° West 423 487 38,000  Level FlightAware ADS-B
Fri 03:06:15 PM 43.3350 -82.1630 259° West 423 487 38,000  Level FlightAware ADS-B
Fri 03:06:59 PM 43.3200 -82.2690 259° West 422 486 38,000  Level FlightAware ADS-B
Fri 03:07:28 PM 43.3100 -82.3410 259° West 416 479 38,000 -338 Level FlightAware ADS-B
Fri 03:08:10 PM 43.2890 -82.4600 256° West 400 460 37,600 -698 Descending FlightAware ADS-B
Fri 03:08:54 PM 43.2480 -82.5550 239° Southwest 400 460 37,000 -1,111 Descending FlightAware ADS-B
Fri 03:09:31 PM 43.2150 -82.6310 239° Southwest 405 466 36,100 -1,077 Descending FlightAware ADS-B
Fri 03:10:12 PM 43.1730 -82.7270 239° Southwest 399 459 35,600 -759 Descending FlightAware ADS-B
Fri 03:10:50 PM 43.1320 -82.8050 234° Southwest 401 461 35,100 -878 Descending FlightAware ADS-B
Fri 03:11:34 PM 43.0790 -82.8850 228° Southwest 402 463 34,400 -825 Descending FlightAware ADS-B
Fri 03:12:10 PM 43.0350 -82.9540 229° Southwest 404 465 34,000 -296 Descending FlightAware ADS-B
Fri 03:12:55 PM 42.9910 -83.0240 229° Southwest 405 466 34,000  Level FlightAware ADS-B
Fri 03:13:37 PM 42.9440 -83.1260 238° Southwest 397 457 34,000  Level FlightAware ADS-B
Fri 03:13:54 PM 42.9370 -83.1780 260° West 395 455 34,000  Level FlightAware ADS-B
Fri 03:14:38 PM 42.9410 -83.2850 273° West 397 457 34,000  Level FlightAware ADS-B
Fri 03:15:18 PM 42.9470 -83.3870 275° West 397 457 34,000 -361 Level FlightAware ADS-B
Fri 03:16:01 PM 42.9530 -83.4920 274° West 396 456 33,500 -940 Descending FlightAware ADS-B
Fri 03:16:41 PM 42.9590 -83.5940 275° West 399 459 32,700 -1,071 Descending FlightAware ADS-B
Fri 03:17:25 PM 42.9650 -83.7060 274° West 402 463 32,000 -500 Descending FlightAware ADS-B
Fri 03:18:05 PM 42.9610 -83.8060 267° West 405 466 32,000  Level FlightAware ADS-B
Fri 03:18:48 PM 42.9510 -83.9140 263° West 404 465 32,000  Level FlightAware ADS-B
Fri 03:19:32 PM 42.9400 -84.0250 262° West 403 464 32,000  Level FlightAware ADS-B
Fri 03:20:11 PM 42.9300 -84.1230 262° West 402 463 32,000  Level FlightAware ADS-B
Fri 03:20:55 PM 42.9200 -84.2310 263° West 383 441 32,000  Level FlightAware ADS-B
Fri 03:21:29 PM 42.9120 -84.3120 262° West 366 421 32,000  Level FlightAware ADS-B
Fri 03:22:27 PM 42.8990 -84.4420 262° West 363 418 32,000  Level FlightAware ADS-B
Fri 03:23:07 PM 42.8890 -84.5320 261° West 363 418 32,000  Level FlightAware ADS-B
Fri 03:23:43 PM 42.8810 -84.6110 262° West 363 418 32,000  Level FlightAware ADS-B
Fri 03:24:25 PM 42.8710 -84.7090 262° West 364 419 32,000  Level FlightAware ADS-B
Fri 03:25:07 PM 42.8610 -84.8050 262° West 364 419 32,000  Level FlightAware ADS-B
Fri 03:25:48 PM 42.8520 -84.8930 262° West 362 417 32,000  Level FlightAware ADS-B
Fri 03:26:29 PM 42.8420 -84.9880 262° West 361 415 32,000  Level FlightAware ADS-B
Fri 03:27:11 PM 42.8330 -85.0820 263° West 362 417 32,000  Level FlightAware ADS-B
Fri 03:27:53 PM 42.8500 -85.1760 284° West 373 429 32,000  Level FlightAware ADS-B
Fri 03:28:37 PM 42.8890 -85.2680 300° West 373 429 32,000  Level FlightAware ADS-B
Fri 03:29:20 PM 42.9250 -85.3540 300° West 369 425 32,000  Level FlightAware ADS-B
Fri 03:30:01 PM 42.9600 -85.4370 300° West 369 425 32,000  Level FlightAware ADS-B
Fri 03:30:41 PM 42.9940 -85.5180 300° West 369 425 32,000 -357 Level FlightAware ADS-B
Fri 03:31:25 PM 43.0330 -85.6060 301° West 367 422 31,500 -698 Descending FlightAware ADS-B
Fri 03:32:07 PM 43.0590 -85.6900 293° West 357 411 31,000 -651 Descending FlightAware ADS-B
Fri 03:32:48 PM 43.0540 -85.7710 265° West 347 399 30,600 -982 Descending FlightAware ADS-B
Fri 03:33:02 PM 43.0410 -85.8050 242° Southwest 347 399 30,100 -1,667 Descending FlightAware ADS-B
Fri 03:33:42 PM 42.9910 -85.8590 218° Southwest 356 410 29,100 -1,620 Descending FlightAware ADS-B
Fri 03:34:42 PM 42.8880 -85.8680 184° South 370 426 27,400 -1,642 Descending FlightAware ADS-B
Fri 03:35:17 PM 42.8290 -85.8650 178° South 363 418 26,500 -1,590 Descending FlightAware ADS-B
Fri 03:36:05 PM 42.7480 -85.8590 177° South 359 413 25,200 -1,535 Descending FlightAware ADS-B
Fri 03:36:43 PM 42.6850 -85.8560 178° South 351 404 24,300 -1,821 Descending FlightAware ADS-B
Fri 03:37:01 PM 42.6580 -85.8640 192° South 348 400 23,500 -2,400 Descending FlightAware ADS-B
Fri 03:37:13 PM 42.6400 -85.8750 204° Southwest 345 397 23,100 -1,800 Descending FlightAware ADS-B
Fri 03:37:31 PM 42.6190 -85.9010 222° Southwest 337 388 22,600 -1,696 Descending FlightAware ADS-B
Fri 03:37:59 PM 42.5990 -85.9530 242° Southwest 331 381 21,800 -1,433 Descending FlightAware ADS-B
Fri 03:38:38 PM 42.5940 -86.0330 265° West 320 368 21,000 -1,308 Descending FlightAware ADS-B
Fri 03:39:17 PM 42.5910 -86.1110 267° West 325 374 20,100 -706 Descending FlightAware ADS-B
Fri 03:40:03 PM 42.5860 -86.2090 266° West 358 412 20,000 -70 Descending FlightAware ADS-B
Fri 03:40:43 PM 42.5820 -86.3000 267° West 356 410 20,000 -370 Level FlightAware ADS-B
Fri 03:41:24 PM 42.5780 -86.3900 267° West 348 400 19,500 -1,395 Descending FlightAware ADS-B
Fri 03:42:09 PM 42.5730 -86.4850 266° West 337 388 18,000 -2,195 Descending FlightAware ADS-B
Fri 03:42:46 PM 42.5690 -86.5620 266° West 338 389 16,500 -2,278 Descending FlightAware ADS-B
Fri 03:43:28 PM 42.5650 -86.6510 267° West 329 379 15,000 -1,976 Descending FlightAware ADS-B
Fri 03:44:08 PM 42.5580 -86.7290 263° West 318 366 13,800 -1,865 Descending FlightAware ADS-B
Fri 03:44:42 PM 42.5420 -86.7950 252° West 310 357 12,700 -1,680 Descending FlightAware ADS-B
Fri 03:45:23 PM 42.5220 -86.8670 249° West 305 351 11,700 -1,500 Descending FlightAware ADS-B
Fri 03:46:10 PM 42.4990 -86.9500 249° West 300 345 10,500 -1,437 Descending FlightAware ADS-B
Fri 03:46:34 PM 42.4870 -86.9940 250° West 299 344 10,000 -556 Descending FlightAware ADS-B
Fri 03:47:04 PM 42.4740 -87.0450 251° West 298 343 10,000  Level FlightAware ADS-B
Fri 03:47:31 PM 42.4660 -87.0740 250° West 289 333 10,000 -190 Level FlightAware ADS-B
Fri 03:48:07 PM 42.4510 -87.1250 248° West 260 299 9,800 -667 Descending FlightAware ADS-B
Fri 03:48:25 PM 42.4380 -87.1470 231° Southwest 256 295 9,400 -2,118 Descending FlightAware ADS-B
Fri 03:48:41 PM 42.4050 -87.1560 191° South 267 307 8,600 -2,143 Descending FlightAware ADS-B
Fri 03:49:07 PM 42.3690 -87.1570 181° South 266 306 7,900 -1,500 Descending FlightAware ADS-B
Fri 03:49:21 PM 42.3520 -87.1570 180° South 263 303 7,600 -1,231 Descending FlightAware ADS-B
Fri 03:49:46 PM 42.3220 -87.1580 181° South 259 298 7,100 -1,200 Descending FlightAware ADS-B
Fri 03:50:11 PM 42.2940 -87.1590 182° South 258 297 6,600 -1,200 Descending FlightAware ADS-B
Fri 03:50:36 PM 42.2650 -87.1600 181° South 251 289 6,100 -679 Descending FlightAware ADS-B
Fri 03:51:04 PM 42.2320 -87.1640 185° South 248 285 6,000 -136 Descending FlightAware ADS-B
Fri 03:51:20 PM 42.2150 -87.1710 197° South 246 283 6,000  Level FlightAware ADS-B
Fri 03:51:58 PM 42.1740 -87.1980 206° Southwest 247 284 6,000  Level FlightAware ADS-B
Fri 03:52:23 PM 42.1470 -87.2140 204° Southwest 245 282 6,000  Level FlightAware ADS-B
Fri 03:52:47 PM 42.1240 -87.2290 206° Southwest 245 282 6,000 -162 Level FlightAware ADS-B
Fri 03:53:00 PM 42.1130 -87.2350 202° Southwest 244 281 5,900 -1,200 Descending FlightAware ADS-B
Fri 03:53:32 PM 42.0770 -87.2580 205° Southwest 241 277 5,100 -844 Descending FlightAware ADS-B
Fri 03:54:04 PM 42.0460 -87.2780 206° Southwest 243 280 5,000 -125 Descending FlightAware ADS-B
Fri 03:54:20 PM 42.0290 -87.2880 204° Southwest 240 276 5,000  Level FlightAware ADS-B
Fri 03:54:44 PM 42.0060 -87.3030 206° Southwest 217 250 5,000  Level FlightAware ADS-B
Fri 03:55:12 PM 41.9860 -87.3230 217° Southwest 200 230 5,000  Level FlightAware ADS-B
Fri 03:55:42 PM 41.9710 -87.3560 239° Southwest 197 227 5,000  Level FlightAware ADS-B
Fri 03:55:58 PM 41.9690 -87.3750 262° West 203 234 5,000  Level FlightAware ADS-B
Fri 03:56:39 PM 41.9690 -87.4270 270° West 206 237 5,000  Level FlightAware ADS-B
Fri 03:57:00 PM 41.9690 -87.4530 270° West 187 215 5,000  Level FlightAware ADS-B
Fri 03:57:34 PM 41.9690 -87.4880 270° West 173 199 5,000  Level FlightAware ADS-B
Fri 03:58:03 PM 41.9690 -87.5190 270° West 173 199 5,000  Level FlightAware ADS-B
Fri 03:58:46 PM 41.9690 -87.5660 270° West 174 200 5,000 -85 Level FlightAware ADS-B
Fri 03:59:14 PM 41.9690 -87.5940 270° West 169 194 4,900 -735 Descending FlightAware ADS-B
Fri 03:59:35 PM 41.9690 -87.6190 270° West 171 197 4,400 -1,077 Descending FlightAware ADS-B
Fri 03:59:53 PM 41.9690 -87.6360 270° West 173 199 4,200 -818 Descending FlightAware ADS-B
Fri 04:00:19 PM 41.9690 -87.6650 270° West 173 199 3,800 -1,019 Descending FlightAware ADS-B
Fri 04:00:46 PM 41.9690 -87.6950 270° West 172 198 3,300 -941 Descending FlightAware ADS-B
Fri 04:01:10 PM 41.9690 -87.7210 270° West 170 196 3,000 -923 Descending FlightAware ADS-B
Fri 04:01:38 PM 41.9690 -87.7510 270° West 173 199 2,500 -947 Descending FlightAware ADS-B
Fri 04:02:07 PM 41.9690 -87.7820 270° West 176 203 2,100 -814 Descending FlightAware ADS-B
Fri 04:02:37 PM 41.9690 -87.8130 270° West 159 183 1,700 -764 Descending FlightAware ADS-B
Fri 04:03:02 PM 41.9690 -87.8370 270° West 140 161 1,400 -792 Descending FlightAware ADS-B
Fri 04:03:30 PM 41.9690 -87.8600 270° West 146 168 1,000 -842 Descending FlightAware ADS-B
Fri 04:03:59 PM 41.9690 -87.8860 270° West 145 167 600 -421 Descending FlightAware ADS-B
Fri 04:04:27 PM 41.9690 -87.9080 270° West 145 167 600  Level FlightAware ADS-B

Login

Don't have an account? Register now (free) for customized features, flight alerts, and more!